Time;durP1;ratioP1;P1;durP2;ratioP2;P2;SDS_P1;SDS_P2;PMS_P1;PMS_P2;Temp;Humidity;BMP_temperature;BMP_pressure;BME280_temperature;BME280_humidity;BME280_pressure;Samples;Min_cycle;Max_cycle;Signal;HPM_P1;HPM_P2
2024/01/22 00:00:10;;;;;;;7.38;5.15;;;;;;;4.06;80.31;100632.16;10429522;28;20055;-69
2024/01/22 00:05:13;;;;;;;6.85;4.43;;;;;;;4.07;80.68;100625.97;10405700;28;20630;-67
2024/01/22 00:10:14;;;;;;;7.28;4.80;;;;;;;4.07;80.49;100609.31;10424789;28;20068;-68
2024/01/22 00:15:16;;;;;;;8.85;4.43;;;;;;;4.08;81.32;100595.19;10429762;28;20747;-64
2024/01/22 00:20:18;;;;;;;4.93;4.18;;;;;;;4.15;81.52;100593.97;10433402;28;20140;-68
2024/01/22 00:25:19;;;;;;;7.38;4.30;;;;;;;4.11;81.21;100578.38;10433938;28;20048;-69
2024/01/22 00:30:22;;;;;;;6.90;4.50;;;;;;;4.15;80.90;100567.63;10440427;28;20147;-67
2024/01/22 00:35:23;;;;;;;8.15;4.50;;;;;;;4.23;80.68;100573.38;10437093;28;20051;-67
2024/01/22 00:40:24;;;;;;;5.03;4.05;;;;;;;4.25;80.99;100563.63;10441644;28;20056;-67
2024/01/22 00:45:26;;;;;;;9.43;5.00;;;;;;;4.26;80.90;100548.66;10435484;28;20072;-68
2024/01/22 00:50:28;;;;;;;5.90;4.40;;;;;;;4.30;81.00;100541.47;10439967;28;20112;-69
2024/01/22 00:55:29;;;;;;;8.20;3.65;;;;;;;4.38;80.65;100560.38;10423235;28;20048;-67
2024/01/22 01:00:31;;;;;;;7.13;3.58;;;;;;;4.35;80.62;100528.88;10431134;28;20245;-67
2024/01/22 01:05:33;;;;;;;6.03;3.83;;;;;;;4.41;80.88;100513.63;10436465;28;20060;-67
2024/01/22 01:10:34;;;;;;;6.28;3.40;;;;;;;4.46;80.57;100516.03;10428150;28;20097;-67
2024/01/22 01:15:36;;;;;;;6.13;3.70;;;;;;;4.53;80.14;100521.84;10434358;28;20036;-68
2024/01/22 01:20:37;;;;;;;6.72;4.07;;;;;;;4.56;80.36;100519.91;10419351;28;20055;-70
2024/01/22 01:25:39;;;;;;;6.05;3.65;;;;;;;4.62;79.07;100518.72;10434200;28;20064;-67
2024/01/22 01:30:42;;;;;;;5.82;4.03;;;;;;;4.62;79.16;100520.50;10426522;28;20056;-68
2024/01/22 01:35:44;;;;;;;5.00;3.20;;;;;;;4.67;79.17;100518.47;10436553;28;20048;-68
2024/01/22 01:40:46;;;;;;;4.05;3.38;;;;;;;4.70;78.75;100518.31;10437554;28;20116;-67
2024/01/22 01:45:48;;;;;;;6.57;3.95;;;;;;;4.72;78.15;100509.41;10425990;28;20218;-67
2024/01/22 01:50:49;;;;;;;6.22;3.25;;;;;;;4.75;78.49;100495.22;10432711;28;20128;-68
2024/01/22 01:55:54;;;;;;;4.07;3.50;;;;;;;4.72;78.27;100480.41;10436776;28;20051;-67
2024/01/22 02:00:57;;;;;;;8.18;4.60;;;;;;;4.71;78.35;100478.69;10433406;28;20056;-67
2024/01/22 02:05:59;;;;;;;6.10;3.25;;;;;;;4.76;78.56;100462.66;10437618;28;20056;-65
2024/01/22 02:11:00;;;;;;;4.55;3.05;;;;;;;4.68;79.13;100446.34;10418907;28;20050;-66
2024/01/22 02:16:02;;;;;;;5.60;3.10;;;;;;;4.76;79.15;100449.47;10419896;28;20245;-68
2024/01/22 02:21:03;;;;;;;5.82;3.40;;;;;;;4.73;78.88;100417.97;10434242;28;20063;-66
2024/01/22 02:26:05;;;;;;;6.00;3.38;;;;;;;4.75;78.85;100421.38;10416516;28;20059;-69
2024/01/22 02:31:08;;;;;;;5.25;3.60;;;;;;;4.70;78.65;100391.75;10375959;28;20114;-68
2024/01/22 02:36:10;;;;;;;5.07;3.13;;;;;;;4.82;79.14;100385.81;10434270;28;21511;-69
2024/01/22 02:41:11;;;;;;;6.93;3.53;;;;;;;4.86;79.05;100392.63;10432561;28;20048;-67
2024/01/22 02:46:13;;;;;;;6.63;3.63;;;;;;;4.89;79.27;100391.59;10408634;28;20132;-67
2024/01/22 02:51:14;;;;;;;4.50;3.42;;;;;;;4.91;79.27;100380.03;10410444;28;20128;-69
2024/01/22 02:56:23;;;;;;;4.45;2.95;;;;;;;4.93;79.46;100380.81;10432998;28;20086;-67
2024/01/22 03:01:25;;;;;;;6.57;3.53;;;;;;;4.96;79.38;100366.59;10407056;28;20779;-67
2024/01/22 03:06:27;;;;;;;4.97;2.65;;;;;;;5.05;79.26;100337.06;10437198;28;20577;-66
2024/01/22 03:11:29;;;;;;;3.90;2.88;;;;;;;5.07;79.45;100348.38;10435465;28;20048;-68
2024/01/22 03:16:30;;;;;;;4.18;2.72;;;;;;;5.10;78.66;100339.44;10429593;28;20755;-66
2024/01/22 03:21:32;;;;;;;9.20;3.47;;;;;;;5.05;78.99;100317.75;10409431;28;20052;-68
2024/01/22 03:26:33;;;;;;;5.80;3.25;;;;;;;5.15;78.84;100318.94;10405912;28;20169;-69
2024/01/22 03:31:37;;;;;;;4.65;2.45;;;;;;;5.18;78.47;100324.03;10432185;28;20055;-69
2024/01/22 03:36:39;;;;;;;3.92;2.55;;;;;;;5.14;78.04;100311.94;10408965;28;20045;-69
2024/01/22 03:41:41;;;;;;;5.30;2.63;;;;;;;5.07;77.05;100289.47;10414438;28;20059;-67
2024/01/22 03:46:42;;;;;;;3.30;2.53;;;;;;;5.10;77.45;100273.47;10428094;28;20079;-67
2024/01/22 03:51:44;;;;;;;3.85;2.03;;;;;;;5.14;76.78;100275.00;10431058;28;20053;-67
2024/01/22 03:56:46;;;;;;;3.67;2.10;;;;;;;5.11;76.56;100249.63;10435613;28;20175;-68
2024/01/22 04:01:48;;;;;;;4.28;2.20;;;;;;;5.14;76.85;100252.09;10436522;28;20063;-68
2024/01/22 04:06:49;;;;;;;4.55;2.03;;;;;;;5.15;76.68;100229.22;10440679;28;20053;-66
2024/01/22 04:11:52;;;;;;;3.08;1.65;;;;;;;5.21;76.88;100199.81;10439989;28;20131;-67
2024/01/22 04:16:53;;;;;;;5.00;2.92;;;;;;;5.24;77.14;100202.28;10415595;28;20142;-68
2024/01/22 04:21:55;;;;;;;2.60;1.95;;;;;;;5.05;77.22;100156.81;10440394;28;20056;-67
2024/01/22 04:26:56;;;;;;;3.47;1.90;;;;;;;5.36;76.95;100186.63;10439198;28;20127;-67
2024/01/22 04:31:57;;;;;;;3.65;1.45;;;;;;;5.40;77.04;100165.25;10439251;28;20060;-68
2024/01/22 04:36:59;;;;;;;4.07;1.42;;;;;;;5.46;76.71;100174.59;10440584;28;20046;-67
2024/01/22 04:42:00;;;;;;;3.55;1.80;;;;;;;5.49;76.91;100169.13;10437816;28;20866;-67
2024/01/22 04:47:03;;;;;;;3.55;1.88;;;;;;;5.49;76.28;100148.88;10410819;28;20522;-67
2024/01/22 04:52:06;;;;;;;3.40;1.70;;;;;;;5.50;76.42;100136.50;10434428;28;20060;-68
2024/01/22 04:57:07;;;;;;;5.60;2.60;;;;;;;5.52;76.28;100145.16;10439163;28;20296;-68
2024/01/22 05:02:08;;;;;;;2.28;1.50;;;;;;;5.60;76.31;100131.50;10441334;28;20096;-68
2024/01/22 05:07:10;;;;;;;2.33;1.45;;;;;;;5.52;76.07;100110.00;10425909;28;20056;-68
2024/01/22 05:12:12;;;;;;;4.78;1.92;;;;;;;5.61;76.35;100115.53;10418632;28;20398;-67
2024/01/22 05:17:13;;;;;;;3.35;1.40;;;;;;;5.68;76.77;100094.06;10430577;28;20627;-68
2024/01/22 05:22:17;;;;;;;2.60;1.30;;;;;;;5.63;75.93;100087.28;10434225;28;20063;-67
2024/01/22 05:27:18;;;;;;;3.00;1.38;;;;;;;5.71;76.21;100070.94;10406017;28;20064;-67
2024/01/22 05:32:20;;;;;;;2.95;1.30;;;;;;;5.67;76.15;100056.22;10437528;28;20351;-68
2024/01/22 05:37:21;;;;;;;5.97;2.05;;;;;;;5.75;76.26;100069.81;10416726;28;20109;-67
2024/01/22 05:42:23;;;;;;;2.90;1.70;;;;;;;5.77;76.43;100057.34;10414730;28;20053;-66
2024/01/22 05:47:24;;;;;;;2.45;0.98;;;;;;;5.82;76.66;100070.25;10406980;28;20068;-67
2024/01/22 05:52:26;;;;;;;2.15;1.10;;;;;;;5.86;76.64;100071.75;10432545;28;20744;-68
2024/01/22 05:57:27;;;;;;;2.88;1.33;;;;;;;5.89;76.10;100055.72;10410938;28;20048;-67
2024/01/22 06:02:29;;;;;;;2.95;1.45;;;;;;;5.87;76.29;100054.97;10435335;28;20174;-67
2024/01/22 06:07:30;;;;;;;3.00;1.25;;;;;;;5.99;75.93;100054.22;10408396;28;20135;-68
2024/01/22 06:12:34;;;;;;;3.78;1.77;;;;;;;6.04;75.78;100050.44;10417689;28;20079;-66
2024/01/22 06:17:35;;;;;;;3.53;1.20;;;;;;;6.01;75.63;100022.41;10417722;28;20676;-69
2024/01/22 06:22:38;;;;;;;1.92;1.55;;;;;;;6.12;75.81;100046.31;10419679;28;20790;-65
2024/01/22 06:27:40;;;;;;;2.45;1.35;;;;;;;6.13;75.50;100041.91;10431541;28;20044;-63
2024/01/22 06:32:42;;;;;;;4.70;1.67;;;;;;;5.97;75.66;100000.59;10415064;28;20048;-65
2024/01/22 06:37:44;;;;;;;2.03;1.23;;;;;;;6.14;74.78;100011.84;10428284;28;20706;-64
2024/01/22 06:42:48;;;;;;;2.05;1.20;;;;;;;6.17;74.42;100030.16;10433828;28;20647;-64
2024/01/22 06:47:50;;;;;;;3.83;1.65;;;;;;;6.14;74.22;100028.59;10424036;28;20064;-63
2024/01/22 06:52:51;;;;;;;3.33;1.40;;;;;;;6.13;74.20;100021.59;10420576;28;20056;-66
2024/01/22 06:57:53;;;;;;;2.55;1.55;;;;;;;6.09;74.30;100030.66;10419312;28;20060;-64
2024/01/22 07:02:54;;;;;;;4.03;1.70;;;;;;;6.08;74.83;100030.75;10416511;28;20056;-65
2024/01/22 07:07:55;;;;;;;3.92;1.50;;;;;;;6.05;76.90;100039.75;10425336;28;20313;-65
2024/01/22 07:12:57;;;;;;;2.58;1.63;;;;;;;5.97;77.80;100027.03;10430289;28;20056;-65
2024/01/22 07:17:58;;;;;;;4.10;1.92;;;;;;;5.86;78.66;100011.00;10429280;28;20952;-63
2024/01/22 07:23:00;;;;;;;4.20;1.95;;;;;;;5.82;78.33;100007.72;10428877;28;20049;-64
2024/01/22 07:28:03;;;;;;;2.83;2.22;;;;;;;5.85;79.92;100022.50;10407334;28;20067;-66
2024/01/22 07:33:05;;;;;;;2.97;1.80;;;;;;;5.72;81.46;100003.97;10416317;28;20048;-64
2024/01/22 07:38:07;;;;;;;4.53;1.52;;;;;;;5.82;83.06;100018.28;10402707;28;20056;-65
2024/01/22 07:43:09;;;;;;;4.40;1.95;;;;;;;5.72;84.87;100014.53;10423457;28;20067;-64
2024/01/22 07:48:11;;;;;;;4.30;1.58;;;;;;;5.69;86.07;100021.78;10412028;28;20053;-65
2024/01/22 07:53:13;;;;;;;5.00;1.60;;;;;;;5.49;87.48;100001.00;10417979;28;20060;-68
2024/01/22 07:58:14;;;;;;;2.45;1.50;;;;;;;5.68;86.67;100020.13;10402890;28;20059;-65
2024/01/22 08:03:18;;;;;;;4.40;2.78;;;;;;;5.66;87.69;100018.41;10427963;28;21869;-67
2024/01/22 08:08:19;;;;;;;3.22;1.77;;;;;;;5.69;89.42;100016.50;10390381;28;20049;-64
2024/01/22 08:13:21;;;;;;;5.05;1.98;;;;;;;5.59;90.92;100005.69;10415595;28;20197;-66
2024/01/22 08:18:23;;;;;;;4.20;2.00;;;;;;;5.43;91.66;100000.53;10429874;28;20048;-64
2024/01/22 08:23:25;;;;;;;2.38;1.70;;;;;;;5.55;91.55;100015.59;10431805;28;20132;-64
2024/01/22 08:28:28;;;;;;;5.40;1.60;;;;;;;5.48;91.40;99990.56;10431040;28;20070;-67
2024/01/22 08:33:29;;;;;;;3.80;1.83;;;;;;;5.52;91.33;99996.47;10408124;28;20044;-64
2024/01/22 08:38:31;;;;;;;3.53;1.75;;;;;;;5.64;91.05;100008.88;10409831;28;20048;-64
2024/01/22 08:43:33;;;;;;;3.25;1.73;;;;;;;5.66;90.53;100017.56;10428331;28;20071;-64
2024/01/22 08:48:34;;;;;;;4.47;1.73;;;;;;;5.69;90.22;100032.34;10392590;28;20060;-64
2024/01/22 08:53:36;;;;;;;3.90;1.58;;;;;;;5.66;90.39;100017.56;10418366;28;20063;-64
2024/01/22 08:58:39;;;;;;;5.50;1.75;;;;;;;5.71;90.57;99998.78;10419376;28;20048;-67
2024/01/22 09:03:41;;;;;;;2.38;1.35;;;;;;;5.63;90.42;99976.38;10414063;28;20131;-68
2024/01/22 09:08:43;;;;;;;38.65;29.45;;;;;;;5.82;91.05;99981.31;10437063;28;20056;-67
2024/01/22 09:13:45;;;;;;;4.07;2.10;;;;;;;5.92;91.45;99981.53;10437306;28;20358;-63
2024/01/22 09:18:48;;;;;;;5.97;2.25;;;;;;;5.98;91.63;99994.38;10424054;28;20800;-63
2024/01/22 09:23:49;;;;;;;4.43;2.38;;;;;;;6.10;92.00;99995.38;10437403;28;20082;-65
2024/01/22 09:28:51;;;;;;;2.60;1.33;;;;;;;6.12;93.17;99993.47;10432047;28;20052;-65
2024/01/22 09:33:55;;;;;;;6.70;2.60;;;;;;;6.15;94.17;100005.63;10436954;28;20052;-65
2024/01/22 09:38:56;;;;;;;4.85;1.98;;;;;;;6.26;95.16;100000.50;10423019;28;20460;-64
2024/01/22 09:43:58;;;;;;;3.65;1.90;;;;;;;6.33;96.68;100009.69;10436504;28;20048;-64
2024/01/22 09:48:59;;;;;;;2.58;1.58;;;;;;;6.43;97.39;99998.53;10434104;28;20153;-63
2024/01/22 09:54:09;;;;;;;4.50;1.67;;;;;;;6.33;98.53;99970.03;10432476;28;20044;-64
2024/01/22 09:59:19;;;;;;;3.88;1.58;;;;;;;6.64;98.85;99990.94;10412574;28;20067;-65
2024/01/22 10:04:23;;;;;;;2.53;1.00;;;;;;;6.52;99.03;99958.22;10436169;28;20530;-65
2024/01/22 10:09:25;;;;;;;5.03;1.17;;;;;;;6.79;99.99;99991.69;10407842;28;20075;-64
2024/01/22 10:14:31;;;;;;;3.33;2.03;;;;;;;6.87;100.00;99986.69;10409020;28;20052;-64
2024/01/22 10:19:32;;;;;;;4.18;1.33;;;;;;;6.94;100.00;99990.63;10435424;28;20051;-64
2024/01/22 10:24:34;;;;;;;2.75;1.25;;;;;;;7.01;100.00;99989.25;10429393;28;20461;-63
2024/01/22 10:29:35;;;;;;;3.72;1.30;;;;;;;7.09;100.00;99972.81;10432756;28;20143;-62
2024/01/22 10:34:50;;;;;;;2.35;1.48;;;;;;;7.13;100.00;99979.59;10436666;28;20063;-64
2024/01/22 10:40:03;;;;;;;3.22;1.55;;;;;;;7.17;100.00;99961.69;10409841;28;20076;-64
2024/01/22 10:45:10;;;;;;;3.00;1.52;;;;;;;7.15;100.00;99960.97;10402399;28;20652;-64
2024/01/22 10:50:17;;;;;;;6.35;3.45;;;;;;;7.08;100.00;99929.59;10427834;28;20048;-63
2024/01/22 10:55:18;;;;;;;5.00;3.15;;;;;;;7.19;100.00;99941.22;10416471;28;20056;-63
2024/01/22 11:00:20;;;;;;;2.63;1.83;;;;;;;7.11;100.00;99933.00;10405150;28;20113;-64
2024/01/22 11:05:27;;;;;;;17.17;13.25;;;;;;;7.18;100.00;99934.25;10405900;28;20060;-63
2024/01/22 11:10:29;;;;;;;3.72;1.75;;;;;;;7.16;100.00;99928.22;10432416;28;20053;-63
2024/01/22 11:15:30;;;;;;;4.53;1.88;;;;;;;7.17;100.00;99924.63;10419967;28;20159;-63
2024/01/22 11:20:32;;;;;;;64.47;41.03;;;;;;;7.16;100.00;99910.56;10421642;28;20124;-64
2024/01/22 11:25:36;;;;;;;134.38;95.28;;;;;;;7.20;100.00;99890.00;10427205;28;20052;-65
2024/01/22 11:30:41;;;;;;;3.95;2.83;;;;;;;7.21;100.00;99881.09;10425993;28;20153;-62
2024/01/22 11:35:44;;;;;;;7.93;4.93;;;;;;;7.26;100.00;99869.19;10415777;28;20724;-63
2024/01/22 11:40:49;;;;;;;3.90;2.45;;;;;;;7.31;100.00;99855.66;10430324;28;20060;-63
2024/01/22 11:45:56;;;;;;;3.43;2.57;;;;;;;7.30;100.00;99848.66;10428051;28;20418;-63
2024/01/22 11:51:02;;;;;;;4.50;1.92;;;;;;;7.32;100.00;99836.13;10432485;28;21775;-64
2024/01/22 11:56:09;;;;;;;5.15;2.95;;;;;;;7.33;100.00;99821.94;10430449;28;20148;-63
2024/01/22 12:01:11;;;;;;;4.88;2.00;;;;;;;7.29;100.00;99824.94;10409558;28;20097;-63
2024/01/22 12:06:13;;;;;;;3.28;2.10;;;;;;;7.32;100.00;99819.41;10413171;28;20044;-64
2024/01/22 12:11:15;;;;;;;3.38;2.25;;;;;;;7.30;100.00;99784.28;10391397;28;20130;-62
2024/01/22 12:16:18;;;;;;;3.65;1.65;;;;;;;7.42;100.00;99784.19;10413561;28;20082;-62
2024/01/22 12:21:20;;;;;;;4.90;1.83;;;;;;;7.38;100.00;99766.84;10413347;28;20057;-63
2024/01/22 12:26:24;;;;;;;;;;;;;;;7.50;100.00;99780.97;10427390;28;20524;-64
2024/01/22 12:31:26;;;;;;;3.28;1.70;;;;;;;7.58;100.00;99775.06;10436734;28;19932;-63
2024/01/22 12:36:28;;;;;;;3.05;1.42;;;;;;;7.61;100.00;99769.53;10442322;28;20052;-63
2024/01/22 12:41:31;;;;;;;3.35;1.60;;;;;;;7.63;100.00;99751.75;10425648;28;20060;-62
2024/01/22 12:46:36;;;;;;;;;;;;;;;7.71;100.00;99753.81;10416519;28;20357;-64
2024/01/22 12:51:39;;;;;;;1.60;1.20;;;;;;;7.75;100.00;99748.16;10415353;28;21875;-61
2024/01/22 12:56:42;;;;;;;4.47;1.70;;;;;;;7.75;100.00;99731.44;10441406;28;20118;-65
2024/01/22 13:01:43;;;;;;;2.88;1.30;;;;;;;7.88;100.00;99757.81;10375783;28;20056;-63
2024/01/22 13:06:47;;;;;;;5.03;1.25;;;;;;;7.91;100.00;99746.97;10416807;28;20061;-63
2024/01/22 13:11:49;;;;;;;4.47;1.23;;;;;;;7.89;100.00;99728.53;10412706;28;20139;-62
2024/01/22 13:16:51;;;;;;;3.10;1.38;;;;;;;7.78;100.00;99702.88;10439268;28;20081;-62
2024/01/22 13:21:52;;;;;;;2.25;1.30;;;;;;;8.03;100.00;99740.75;10425377;28;20150;-63
2024/01/22 13:26:54;;;;;;;2.35;0.88;;;;;;;8.01;100.00;99732.03;10431303;28;20052;-64
2024/01/22 13:31:57;;;;;;;2.47;2.10;;;;;;;8.08;100.00;99738.56;10422460;28;20048;-62
2024/01/22 13:36:59;;;;;;;2.47;0.95;;;;;;;8.09;100.00;99719.03;10416106;28;20049;-63
2024/01/22 13:42:00;;;;;;;2.80;1.05;;;;;;;8.19;100.00;99718.31;10417290;28;20087;-62
2024/01/22 13:47:03;;;;;;;2.53;1.45;;;;;;;8.01;100.00;99696.75;10409253;28;20052;-64
2024/01/22 13:52:07;;;;;;;1.58;0.95;;;;;;;8.19;100.00;99723.63;10435190;28;20094;-61
2024/01/22 13:57:15;;;;;;;4.75;1.95;;;;;;;8.19;100.00;99718.31;10408760;28;20052;-63
2024/01/22 14:02:17;;;;;;;2.95;1.45;;;;;;;8.13;100.00;99723.13;10432220;28;20129;-62
2024/01/22 14:07:18;;;;;;;7.28;5.47;;;;;;;8.24;100.00;99747.94;10432419;28;20218;-62
2024/01/22 14:12:20;;;;;;;3.85;1.40;;;;;;;8.26;100.00;99746.88;10423192;28;20593;-62
2024/01/22 14:17:21;;;;;;;2.90;1.58;;;;;;;8.27;100.00;99753.00;10432711;28;20092;-63
2024/01/22 14:22:23;;;;;;;3.35;1.60;;;;;;;8.29;100.00;99716.63;10414708;28;20581;-63
2024/01/22 14:27:25;;;;;;;6.00;5.30;;;;;;;8.28;100.00;99730.84;10424032;28;20061;-65
2024/01/22 14:32:28;;;;;;;4.10;2.97;;;;;;;8.27;100.00;99739.75;10422347;28;20052;-63
2024/01/22 14:37:30;;;;;;;2.05;1.10;;;;;;;8.28;100.00;99733.50;10418724;28;20170;-63
2024/01/22 14:42:33;;;;;;;3.45;1.27;;;;;;;8.32;100.00;99749.03;10429688;28;20125;-63
2024/01/22 14:47:36;;;;;;;2.55;1.30;;;;;;;8.36;100.00;99736.41;10429521;28;20702;-63
2024/01/22 14:52:37;;;;;;;3.38;1.05;;;;;;;8.44;100.00;99751.72;10394982;28;20151;-62
2024/01/22 14:57:39;;;;;;;2.35;1.33;;;;;;;8.47;100.00;99754.97;10422506;28;20637;-62
2024/01/22 15:02:41;;;;;;;3.40;1.80;;;;;;;8.45;100.00;99751.59;10403671;28;20797;-63
2024/01/22 15:07:42;;;;;;;4.93;1.30;;;;;;;8.51;100.00;99760.03;10430303;28;20055;-62
2024/01/22 15:12:45;;;;;;;2.75;1.52;;;;;;;8.47;100.00;99747.00;10414459;28;20070;-64
2024/01/22 15:17:47;;;;;;;3.03;1.10;;;;;;;8.57;100.00;99764.84;10432578;28;20064;-63
2024/01/22 15:22:48;;;;;;;2.00;1.73;;;;;;;8.57;100.00;99791.38;10409568;28;20172;-63
2024/01/22 15:27:53;;;;;;;4.13;1.60;;;;;;;8.55;100.00;99803.91;10427700;28;20534;-63
2024/01/22 15:32:55;;;;;;;2.78;1.33;;;;;;;8.52;100.00;99798.84;10430443;28;20051;-64
2024/01/22 15:37:57;;;;;;;2.47;1.20;;;;;;;8.51;100.00;99795.34;10395214;28;20060;-63
2024/01/22 15:42:59;;;;;;;4.65;1.60;;;;;;;8.48;100.00;99832.72;10402807;28;20049;-62
2024/01/22 15:48:02;;;;;;;4.72;1.55;;;;;;;8.45;100.00;99827.66;10428899;28;20553;-63
2024/01/22 15:53:05;;;;;;;10.15;6.97;;;;;;;8.48;100.00;99809.72;10409691;28;20060;-63
2024/01/22 15:58:06;;;;;;;4.68;2.60;;;;;;;8.53;100.00;99806.69;10418364;28;20717;-64
2024/01/22 16:03:08;;;;;;;4.03;1.30;;;;;;;8.70;100.00;99823.09;10438511;28;20709;-64
2024/01/22 16:08:10;;;;;;;4.13;1.38;;;;;;;8.73;100.00;99839.59;10442419;28;20583;-63
2024/01/22 16:13:14;;;;;;;4.00;1.17;;;;;;;8.71;100.00;99848.63;10440843;28;20040;-62
2024/01/22 16:18:17;;;;;;;6.00;1.65;;;;;;;8.68;100.00;99849.75;10439447;28;20671;-62
2024/01/22 16:23:21;;;;;;;3.33;1.17;;;;;;;8.67;100.00;99882.53;10415625;28;20690;-63
2024/01/22 16:28:25;;;;;;;4.80;1.30;;;;;;;8.65;100.00;99885.31;10444246;28;20052;-61
2024/01/22 16:33:27;;;;;;;5.10;1.50;;;;;;;8.63;100.00;99904.97;10447820;28;20083;-63
2024/01/22 16:38:29;;;;;;;5.72;1.58;;;;;;;8.62;100.00;99921.88;10433360;28;20680;-63
2024/01/22 16:43:30;;;;;;;4.55;1.45;;;;;;;8.62;100.00;99920.06;10427415;28;20140;-63
2024/01/22 16:48:32;;;;;;;4.88;1.20;;;;;;;8.54;100.00;99929.56;10411455;28;20564;-63
2024/01/22 16:53:33;;;;;;;3.38;1.15;;;;;;;8.64;100.00;99957.06;10442706;28;20119;-62
2024/01/22 16:58:35;;;;;;;4.38;1.38;;;;;;;8.63;100.00;99966.00;10435661;28;20742;-63
2024/01/22 17:03:37;;;;;;;4.32;1.05;;;;;;;8.61;100.00;99973.22;10437592;28;20536;-62
2024/01/22 17:08:40;;;;;;;8.00;1.75;;;;;;;8.60;100.00;99971.53;10437162;28;20060;-63
2024/01/22 17:13:41;;;;;;;3.45;1.58;;;;;;;8.60;100.00;99983.00;10424329;28;20240;-64
2024/01/22 17:18:46;;;;;;;4.72;1.55;;;;;;;8.60;100.00;99992.75;10435225;28;20104;-63
2024/01/22 17:23:50;;;;;;;5.50;1.60;;;;;;;8.59;100.00;100012.31;10437874;28;20057;-63
2024/01/22 17:28:51;;;;;;;5.75;1.67;;;;;;;8.57;100.00;100003.59;10438760;28;20061;-63
2024/01/22 17:33:53;;;;;;;3.92;1.58;;;;;;;8.60;100.00;100029.91;10441509;28;20132;-62
2024/01/22 17:38:55;;;;;;;7.70;2.70;;;;;;;8.55;100.00;100042.69;10413518;28;20061;-62
2024/01/22 17:43:57;;;;;;;5.95;1.73;;;;;;;8.53;100.00;100052.53;10410544;28;20067;-63
2024/01/22 17:48:58;;;;;;;7.63;1.77;;;;;;;8.45;100.00;100064.59;10405975;28;20733;-63
2024/01/22 17:54:01;;;;;;;4.78;1.60;;;;;;;8.41;100.00;100073.72;10424221;28;20052;-64
2024/01/22 17:59:02;;;;;;;7.50;3.17;;;;;;;8.38;100.00;100081.91;10398331;28;20044;-63
2024/01/22 18:04:04;;;;;;;4.32;1.95;;;;;;;8.35;100.00;100097.16;10437794;28;20052;-63
2024/01/22 18:09:06;;;;;;;7.05;2.90;;;;;;;8.24;100.00;100105.91;10432819;28;20136;-62
2024/01/22 18:14:07;;;;;;;7.90;1.90;;;;;;;8.18;100.00;100124.94;10437279;28;20550;-64
2024/01/22 18:19:09;;;;;;;9.63;4.03;;;;;;;8.16;100.00;100134.81;10402213;28;20572;-61
2024/01/22 18:24:10;;;;;;;4.95;1.38;;;;;;;7.99;100.00;100134.22;10436446;28;20061;-61
2024/01/22 18:29:12;;;;;;;6.65;2.83;;;;;;;8.15;100.00;100184.31;10437948;28;20518;-63
2024/01/22 18:34:14;;;;;;;5.90;2.15;;;;;;;8.04;100.00;100181.59;10439859;28;20475;-63
2024/01/22 18:39:16;;;;;;;5.70;1.55;;;;;;;8.06;100.00;100201.75;10436750;28;20058;-61
2024/01/22 18:44:18;;;;;;;4.90;2.67;;;;;;;8.04;100.00;100229.31;10440955;28;20145;-61
2024/01/22 18:49:20;;;;;;;8.30;6.65;;;;;;;8.05;100.00;100237.16;10417425;28;20114;-61
2024/01/22 18:54:22;;;;;;;7.07;3.30;;;;;;;8.10;100.00;100255.41;10415557;28;20062;-62
2024/01/22 18:59:24;;;;;;;5.38;1.92;;;;;;;8.07;100.00;100261.75;10406585;28;20126;-61
2024/01/22 19:04:28;;;;;;;7.22;2.15;;;;;;;8.07;100.00;100274.19;10416015;28;20512;-62
2024/01/22 19:09:30;;;;;;;4.30;2.28;;;;;;;8.03;99.15;100275.34;10417822;28;20187;-61
2024/01/22 19:14:31;;;;;;;4.50;2.15;;;;;;;8.11;99.29;100295.06;10439066;28;20534;-65
2024/01/22 19:19:33;;;;;;;4.93;2.60;;;;;;;8.05;99.23;100297.31;10444911;28;20493;-62
2024/01/22 19:24:34;;;;;;;7.25;2.03;;;;;;;8.01;100.00;100298.47;10439687;28;20049;-61
2024/01/22 19:29:38;;;;;;;7.20;2.45;;;;;;;7.92;100.00;100308.72;10437212;28;20053;-62
2024/01/22 19:34:40;;;;;;;7.10;2.25;;;;;;;7.93;100.00;100314.91;10433501;28;20122;-64
2024/01/22 19:39:42;;;;;;;3.95;1.98;;;;;;;7.89;100.00;100321.34;10425627;28;20056;-63
2024/01/22 19:44:43;;;;;;;8.07;2.60;;;;;;;7.84;100.00;100328.78;10441397;28;20705;-62
2024/01/22 19:49:45;;;;;;;5.55;1.90;;;;;;;7.72;100.00;100331.28;10432387;28;20052;-62
2024/01/22 19:54:47;;;;;;;5.57;2.20;;;;;;;7.62;100.00;100340.81;10438118;28;20052;-61
2024/01/22 19:59:49;;;;;;;4.63;2.35;;;;;;;7.66;100.00;100346.78;10436157;28;20148;-61
2024/01/22 20:04:50;;;;;;;6.68;2.30;;;;;;;7.71;100.00;100356.09;10417672;28;20049;-61
2024/01/22 20:09:52;;;;;;;7.32;2.83;;;;;;;7.71;100.00;100371.16;10417229;28;20044;-63
2024/01/22 20:14:56;;;;;;;8.25;2.90;;;;;;;7.77;100.00;100368.91;10434411;28;20052;-63
2024/01/22 20:19:57;;;;;;;5.07;2.33;;;;;;;7.72;100.00;100362.25;10440964;28;20483;-64
2024/01/22 20:24:59;;;;;;;9.50;2.90;;;;;;;7.88;100.00;100378.81;10420057;28;20056;-63
2024/01/22 20:30:06;;;;;;;6.85;2.75;;;;;;;7.85;100.00;100378.16;10427410;28;20733;-62
2024/01/22 20:35:08;;;;;;;7.47;2.63;;;;;;;7.86;100.00;100379.88;10429499;28;20045;-63
2024/01/22 20:40:09;;;;;;;10.98;3.83;;;;;;;7.90;100.00;100381.38;10436308;28;20048;-60
2024/01/22 20:45:11;;;;;;;8.70;2.72;;;;;;;7.82;99.88;100373.94;10443971;28;20175;-62
2024/01/22 20:50:12;;;;;;;7.93;2.63;;;;;;;7.84;99.96;100387.09;10431647;28;20053;-61
2024/01/22 20:55:15;;;;;;;9.65;2.20;;;;;;;7.82;98.27;100370.41;10428567;28;20056;-60
2024/01/22 21:00:19;;;;;;;5.78;1.90;;;;;;;7.78;98.62;100373.28;10430002;28;20676;-60
2024/01/22 21:05:23;;;;;;;9.23;2.90;;;;;;;7.67;99.08;100369.66;10436581;28;20049;-62
2024/01/22 21:10:25;;;;;;;5.90;2.10;;;;;;;7.69;99.25;100386.31;10392918;28;20056;-62
2024/01/22 21:15:26;;;;;;;9.27;3.17;;;;;;;7.61;99.30;100373.53;10439499;28;20087;-62
2024/01/22 21:20:28;;;;;;;9.70;3.20;;;;;;;7.62;99.44;100388.50;10402211;28;21604;-63
2024/01/22 21:25:30;;;;;;;8.52;2.38;;;;;;;7.42;99.45;100372.13;10444153;28;20044;-62
2024/01/22 21:30:31;;;;;;;7.50;2.60;;;;;;;7.58;99.45;100393.16;10439039;28;20127;-63
2024/01/22 21:35:33;;;;;;;10.52;2.97;;;;;;;7.52;99.09;100408.59;10428735;28;20143;-63
2024/01/22 21:40:35;;;;;;;7.07;2.60;;;;;;;7.44;98.92;100391.41;10442562;28;20053;-63
2024/01/22 21:45:36;;;;;;;10.27;2.50;;;;;;;7.47;98.78;100397.47;10442605;28;20053;-63
2024/01/22 21:50:38;;;;;;;7.72;3.10;;;;;;;7.49;98.10;100382.31;10432494;28;20169;-62
2024/01/22 21:55:39;;;;;;;5.63;2.20;;;;;;;7.49;97.05;100377.88;10402073;28;20136;-63
2024/01/22 22:00:41;;;;;;;4.30;2.00;;;;;;;7.43;97.07;100384.41;10426191;28;20079;-62
2024/01/22 22:05:43;;;;;;;6.75;2.25;;;;;;;7.42;97.13;100382.72;10397918;28;20652;-62
2024/01/22 22:10:45;;;;;;;6.18;2.33;;;;;;;7.47;97.23;100392.16;10435287;28;20072;-62
2024/01/22 22:15:47;;;;;;;8.60;2.75;;;;;;;7.44;96.47;100396.69;10439978;28;20256;-62
2024/01/22 22:20:48;;;;;;;8.43;2.53;;;;;;;7.47;96.24;100410.72;10402552;28;20470;-62
2024/01/22 22:25:52;;;;;;;4.75;1.75;;;;;;;7.44;96.31;100412.59;10436298;28;20055;-62
2024/01/22 22:30:53;;;;;;;7.32;1.80;;;;;;;7.39;95.39;100406.75;10441261;28;20068;-63
2024/01/22 22:35:55;;;;;;;6.82;1.88;;;;;;;7.48;94.77;100404.47;10440924;28;20678;-63
2024/01/22 22:40:59;;;;;;;3.40;1.67;;;;;;;7.39;95.14;100406.75;10440848;28;20059;-61
2024/01/22 22:46:00;;;;;;;7.60;1.48;;;;;;;7.22;95.25;100375.19;10439484;28;20059;-62
2024/01/22 22:51:01;;;;;;;5.80;1.30;;;;;;;7.36;95.25;100404.31;10437221;28;20744;-61
2024/01/22 22:56:03;;;;;;;3.55;1.27;;;;;;;7.42;95.36;100425.09;10408626;28;20136;-61
2024/01/22 23:01:05;;;;;;;6.47;1.65;;;;;;;7.46;95.49;100438.13;10441542;28;20132;-63
2024/01/22 23:06:07;;;;;;;5.97;1.42;;;;;;;7.47;95.30;100427.44;10439916;28;20048;-62
2024/01/22 23:11:09;;;;;;;6.60;1.73;;;;;;;7.50;94.66;100421.09;10437722;28;20236;-61
2024/01/22 23:16:11;;;;;;;6.43;1.83;;;;;;;7.44;94.68;100422.34;10438943;28;20135;-63
2024/01/22 23:21:12;;;;;;;6.95;1.85;;;;;;;7.51;94.45;100428.94;10439756;28;20060;-61